createdAt,value
2023-10-29T00:01:28.023Z,98458.91
2023-10-29T00:03:55.352Z,98457.34
2023-10-29T00:06:21.834Z,98448.75
2023-10-29T00:08:48.175Z,98449.44
2023-10-29T00:11:14.615Z,98450.59
2023-10-29T00:13:40.974Z,98441.81
2023-10-29T00:16:07.534Z,98438.28
2023-10-29T00:18:33.930Z,98433.38
2023-10-29T00:21:00.436Z,98424.06
2023-10-29T00:23:27.033Z,98416.22
2023-10-29T00:25:53.401Z,98422.00
2023-10-29T00:28:19.718Z,98411.78
2023-10-29T00:30:46.226Z,98413.63
2023-10-29T00:33:12.724Z,98410.31
2023-10-29T00:35:39.290Z,98404.22
2023-10-29T00:38:05.693Z,98404.13
2023-10-29T00:40:32.243Z,98386.94
2023-10-29T00:42:59.498Z,98372.91
2023-10-29T00:45:26.664Z,98371.22
2023-10-29T00:47:53.783Z,98353.03
2023-10-29T00:50:21.804Z,98340.13
2023-10-29T00:52:50.012Z,98353.28
2023-10-29T00:55:17.146Z,98348.06
2023-10-29T00:57:43.663Z,98341.75
2023-10-29T01:00:11.643Z,98337.38
2023-10-29T01:02:38.876Z,98339.34
2023-10-29T01:05:06.409Z,98340.75
2023-10-29T01:07:34.119Z,98346.16
2023-10-29T01:10:00.951Z,98342.44
2023-10-29T01:12:28.756Z,98331.22
2023-10-29T01:14:55.534Z,98323.00
2023-10-29T01:17:22.730Z,98313.63
2023-10-29T01:19:51.309Z,98314.00
2023-10-29T01:22:19.110Z,98325.06
2023-10-29T01:24:47.926Z,98342.34
2023-10-29T01:27:14.437Z,98348.22
2023-10-29T01:29:41.088Z,98330.78
2023-10-29T01:32:21.060Z,98333.78
2023-10-29T01:34:47.669Z,98330.50
2023-10-29T01:37:14.146Z,98324.91
2023-10-29T01:39:40.550Z,98328.97
2023-10-29T01:42:07.106Z,98324.09
2023-10-29T01:44:33.507Z,98317.13
2023-10-29T01:46:59.821Z,98313.34
2023-10-29T01:49:26.172Z,98316.81
2023-10-29T01:51:52.868Z,98315.00
2023-10-29T01:54:19.203Z,98307.84
2023-10-29T01:56:45.688Z,98312.88
2023-10-29T01:59:15.730Z,98309.00
2023-10-29T02:01:43.199Z,98305.16
2023-10-29T02:04:10.549Z,98309.44
2023-10-29T02:06:40.650Z,98301.34
2023-10-29T02:09:09.797Z,98292.84
2023-10-29T02:11:38.899Z,98298.81
2023-10-29T02:14:06.380Z,98287.44
2023-10-29T02:16:33.393Z,98289.19
2023-10-29T02:18:59.798Z,98291.19
2023-10-29T02:21:26.218Z,98282.31
2023-10-29T02:23:53.921Z,98280.16
2023-10-29T02:26:21.150Z,98280.41
2023-10-29T02:28:47.546Z,98275.22
2023-10-29T02:31:18.300Z,98259.38
2023-10-29T02:33:45.329Z,98247.50
2023-10-29T02:36:12.061Z,98252.06
2023-10-29T02:38:38.845Z,98233.50
2023-10-29T02:41:06.201Z,98244.13
2023-10-29T02:43:32.569Z,98232.72
2023-10-29T02:46:00.207Z,98224.50
2023-10-29T02:48:27.189Z,98221.00
2023-10-29T02:50:54.809Z,98212.03
2023-10-29T02:53:22.063Z,98209.75
2023-10-29T02:55:48.980Z,98189.13
2023-10-29T02:58:16.750Z,98201.44
2023-10-29T03:00:43.152Z,98191.50
2023-10-29T03:03:09.724Z,98187.28
2023-10-29T03:05:50.207Z,98183.09
2023-10-29T03:08:20.768Z,98175.56
2023-10-29T03:10:50.688Z,98177.06
2023-10-29T03:13:17.187Z,98174.56
2023-10-29T03:15:44.468Z,98171.09
2023-10-29T03:18:13.323Z,98154.53
2023-10-29T03:20:40.580Z,98143.41
2023-10-29T03:23:07.258Z,98132.00
2023-10-29T03:25:34.172Z,98123.19
2023-10-29T03:28:00.746Z,98130.00
2023-10-29T03:30:27.088Z,98122.16
2023-10-29T03:32:53.941Z,98114.56
2023-10-29T03:35:20.354Z,98099.75
2023-10-29T03:37:46.886Z,98103.03
2023-10-29T03:40:13.495Z,98088.28
2023-10-29T03:42:39.972Z,98075.06
2023-10-29T03:45:07.056Z,98078.66
2023-10-29T03:47:33.495Z,98069.09
2023-10-29T03:50:00.226Z,98052.59
2023-10-29T03:52:26.769Z,98057.66
2023-10-29T03:54:55.060Z,98054.06
2023-10-29T03:57:21.893Z,98051.59
2023-10-29T03:59:49.002Z,98031.59
2023-10-29T04:02:15.400Z,98055.56
2023-10-29T04:04:43.964Z,98038.13
2023-10-29T04:07:13.283Z,98033.69
2023-10-29T04:09:39.801Z,98035.34
2023-10-29T04:12:07.297Z,98023.06
2023-10-29T04:14:36.409Z,98022.38
2023-10-29T04:17:02.832Z,98008.38
2023-10-29T04:19:29.191Z,98006.06
2023-10-29T04:21:55.532Z,97996.50
2023-10-29T04:24:21.855Z,97998.00
2023-10-29T04:26:48.462Z,97997.91
2023-10-29T04:29:16.024Z,97989.34
2023-10-29T04:31:42.422Z,97994.50
2023-10-29T04:34:09.408Z,97988.25
2023-10-29T04:36:35.791Z,97982.88
2023-10-29T04:39:02.260Z,97988.50
2023-10-29T04:41:28.926Z,97986.72
2023-10-29T04:43:55.521Z,97979.78
2023-10-29T04:46:22.139Z,97970.88
2023-10-29T04:48:48.561Z,97972.56
2023-10-29T04:51:14.936Z,97972.19
2023-10-29T04:53:41.637Z,97949.38
2023-10-29T04:56:08.182Z,97949.22
2023-10-29T04:58:35.114Z,97945.69
2023-10-29T05:01:01.464Z,97930.66
2023-10-29T05:03:30.790Z,97919.13
2023-10-29T05:05:57.378Z,97927.81
2023-10-29T05:08:23.806Z,97919.72
2023-10-29T05:10:50.210Z,97906.81
2023-10-29T05:13:16.668Z,97911.84
2023-10-29T05:15:43.804Z,97902.28
2023-10-29T05:18:12.200Z,97899.56
2023-10-29T05:20:39.316Z,97884.72
2023-10-29T05:23:06.852Z,97894.28
2023-10-29T05:25:33.224Z,97878.31
2023-10-29T05:27:59.976Z,97862.53
2023-10-29T05:30:26.666Z,97859.94
2023-10-29T05:32:53.399Z,97849.53
2023-10-29T05:35:20.114Z,97853.97
2023-10-29T05:37:46.499Z,97836.44
2023-10-29T05:40:12.949Z,97833.91
2023-10-29T05:42:39.351Z,97839.13
2023-10-29T05:45:07.927Z,97833.72
2023-10-29T05:47:34.862Z,97838.09
2023-10-29T05:50:02.269Z,97844.13
2023-10-29T05:52:28.897Z,97840.59
2023-10-29T05:54:55.346Z,97836.06
2023-10-29T05:57:21.775Z,97840.03
2023-10-29T05:59:48.244Z,97842.00
2023-10-29T06:02:14.951Z,97838.38
2023-10-29T06:04:41.909Z,97843.38
2023-10-29T06:07:09.557Z,97840.69
2023-10-29T06:09:36.268Z,97838.19
2023-10-29T06:12:02.867Z,97847.56
2023-10-29T06:14:29.662Z,97839.50
2023-10-29T06:17:08.659Z,97845.34
2023-10-29T06:19:42.390Z,97843.84
2023-10-29T06:22:09.664Z,97848.19
2023-10-29T06:24:36.413Z,97847.09
2023-10-29T06:27:03.803Z,97845.34
2023-10-29T06:29:30.243Z,97842.63
2023-10-29T06:31:56.647Z,97838.91
2023-10-29T06:34:23.164Z,97836.22
2023-10-29T06:36:50.058Z,97834.06
2023-10-29T06:39:18.216Z,97819.38
2023-10-29T06:41:45.079Z,97821.69
2023-10-29T06:44:11.656Z,97823.63
2023-10-29T06:46:38.363Z,97823.09
2023-10-29T06:49:04.859Z,97828.81
2023-10-29T06:51:31.329Z,97818.41
2023-10-29T06:53:57.796Z,97823.22
2023-10-29T06:56:24.308Z,97818.47
2023-10-29T06:58:50.724Z,97802.75
2023-10-29T07:01:17.098Z,97805.06
2023-10-29T07:03:43.960Z,97806.81
2023-10-29T07:06:11.911Z,97806.53
2023-10-29T07:08:39.242Z,97818.31
2023-10-29T07:11:06.427Z,97814.38
2023-10-29T07:13:33.545Z,97817.53
2023-10-29T07:16:01.709Z,97821.06
2023-10-29T07:18:28.365Z,97819.59
2023-10-29T07:20:57.206Z,97807.66
2023-10-29T07:23:24.125Z,97812.88
2023-10-29T07:25:51.924Z,97815.06
2023-10-29T07:28:19.124Z,97823.78
2023-10-29T07:30:45.840Z,97813.38
2023-10-29T07:33:12.481Z,97816.72
2023-10-29T07:35:40.588Z,97838.88
2023-10-29T07:38:08.818Z,97845.00
2023-10-29T07:40:39.721Z,97856.19
2023-10-29T07:43:06.265Z,97851.50
2023-10-29T07:45:33.301Z,97855.78
2023-10-29T07:48:00.059Z,97869.84
2023-10-29T07:50:27.106Z,97858.50
2023-10-29T07:52:54.035Z,97855.78
2023-10-29T07:55:21.103Z,97873.84
2023-10-29T07:57:47.861Z,97885.63
2023-10-29T08:00:15.306Z,97889.28
2023-10-29T08:02:44.485Z,97892.72
2023-10-29T08:05:16.223Z,97895.97
2023-10-29T08:07:42.756Z,97899.00
2023-10-29T08:10:10.782Z,97889.53
2023-10-29T08:12:38.277Z,97896.19
2023-10-29T08:15:05.513Z,97927.06
2023-10-29T08:17:32.532Z,97936.56
2023-10-29T08:20:01.895Z,97953.91
2023-10-29T08:22:29.653Z,97966.94
2023-10-29T08:24:59.166Z,97970.66
2023-10-29T08:27:25.851Z,97980.06
2023-10-29T08:29:56.297Z,97996.44
2023-10-29T08:32:22.848Z,98006.88
2023-10-29T08:34:49.579Z,98035.38
2023-10-29T08:37:16.660Z,98053.81
2023-10-29T08:39:43.372Z,98069.34
2023-10-29T08:42:10.131Z,98087.41
2023-10-29T08:44:37.247Z,98095.97
2023-10-29T08:47:04.651Z,98109.25
2023-10-29T08:49:31.489Z,98131.78
2023-10-29T08:51:58.172Z,98138.16
2023-10-29T08:54:25.095Z,98146.44
2023-10-29T08:56:52.070Z,98163.28
2023-10-29T08:59:18.757Z,98180.50
2023-10-29T09:01:45.598Z,98189.00
2023-10-29T09:04:13.305Z,98212.09
2023-10-29T09:06:39.904Z,98232.19
2023-10-29T09:09:06.412Z,98262.72
2023-10-29T09:11:32.970Z,98284.69
2023-10-29T09:13:59.395Z,98315.19
2023-10-29T09:16:25.807Z,98340.84
2023-10-29T09:18:52.474Z,98371.53
2023-10-29T09:21:18.867Z,98381.44
2023-10-29T09:23:45.241Z,98415.72
2023-10-29T09:26:11.624Z,98440.44
2023-10-29T09:28:38.651Z,98476.25
2023-10-29T09:31:05.601Z,98510.44
2023-10-29T09:33:32.138Z,98541.00
2023-10-29T09:35:58.551Z,98538.50
2023-10-29T09:38:24.967Z,98535.69
2023-10-29T09:40:53.799Z,98551.38
2023-10-29T09:43:24.558Z,98557.91
2023-10-29T09:45:53.630Z,98571.16
2023-10-29T09:48:20.169Z,98565.72
2023-10-29T09:50:46.986Z,98580.22
2023-10-29T09:53:16.050Z,98578.59
2023-10-29T09:55:42.592Z,98594.94
2023-10-29T09:58:10.047Z,98607.94
2023-10-29T10:00:37.751Z,98606.81
2023-10-29T10:03:05.336Z,98612.91
2023-10-29T10:05:34.167Z,98624.19
2023-10-29T10:08:01.430Z,98638.56
2023-10-29T10:10:40.097Z,98629.22
2023-10-29T10:13:07.337Z,98636.13
2023-10-29T10:15:34.442Z,98647.88
2023-10-29T10:18:03.474Z,98663.75
2023-10-29T10:20:30.468Z,98676.25
2023-10-29T10:23:05.057Z,98679.47
2023-10-29T10:25:33.326Z,98698.47
2023-10-29T10:28:00.936Z,98738.19
2023-10-29T10:30:35.908Z,98739.50
2023-10-29T10:33:16.151Z,98750.25
2023-10-29T10:35:45.166Z,98756.63
2023-10-29T10:38:12.697Z,98753.81
2023-10-29T10:40:40.012Z,98777.94
2023-10-29T10:43:08.629Z,98801.97
2023-10-29T10:45:38.100Z,98817.78
2023-10-29T10:48:06.260Z,98827.13
2023-10-29T10:50:34.115Z,98848.63
2023-10-29T10:53:01.412Z,98859.03
2023-10-29T10:55:47.445Z,98861.19
2023-10-29T10:58:18.886Z,98865.03
2023-10-29T11:00:46.283Z,98881.66
2023-10-29T11:03:28.968Z,98889.16
2023-10-29T11:05:58.833Z,98884.19
2023-10-29T11:08:26.112Z,98898.97
2023-10-29T11:10:54.609Z,98905.06
2023-10-29T11:13:21.843Z,98919.38
2023-10-29T11:15:49.889Z,98905.25
2023-10-29T11:18:30.947Z,98910.47
2023-10-29T11:20:58.166Z,98914.03
2023-10-29T11:23:29.907Z,98912.31
2023-10-29T11:26:22.482Z,98899.72
2023-10-29T11:28:50.839Z,98918.41
2023-10-29T11:31:18.996Z,98923.09
2023-10-29T11:33:48.103Z,98945.94
2023-10-29T11:36:34.175Z,98947.16
2023-10-29T11:39:16.210Z,98966.13
2023-10-29T11:41:45.306Z,98959.88
2023-10-29T11:44:25.972Z,98968.75
2023-10-29T11:47:04.874Z,98961.84
2023-10-29T11:49:46.704Z,98961.38
2023-10-29T11:52:13.607Z,98941.59
2023-10-29T11:54:40.120Z,98936.72
2023-10-29T11:57:07.332Z,98948.81
2023-10-29T11:59:33.986Z,98954.50
2023-10-29T12:02:01.200Z,98952.06
2023-10-29T12:04:33.797Z,98960.84
2023-10-29T12:07:00.651Z,98970.31
2023-10-29T12:09:28.812Z,98984.84
2023-10-29T12:11:55.768Z,98989.91
2023-10-29T12:14:43.615Z,98993.28
2023-10-29T12:17:11.095Z,98997.66
2023-10-29T12:19:46.068Z,98990.88
2023-10-29T12:22:23.669Z,98986.06
2023-10-29T12:24:53.221Z,98981.47
2023-10-29T12:27:20.459Z,98984.88
2023-10-29T12:29:46.887Z,98969.78
2023-10-29T12:32:21.835Z,98971.69
2023-10-29T12:34:50.580Z,98982.25
2023-10-29T12:37:22.391Z,98976.34
2023-10-29T12:39:57.521Z,98972.91
2023-10-29T12:42:53.210Z,98972.03
2023-10-29T12:45:27.587Z,98970.44
2023-10-29T12:48:13.298Z,98975.97
2023-10-29T12:50:51.440Z,98975.84
2023-10-29T12:53:25.445Z,98972.50
2023-10-29T12:55:52.459Z,98971.69
2023-10-29T12:58:18.978Z,98974.31
2023-10-29T13:00:45.757Z,98970.34
2023-10-29T13:03:12.292Z,98969.91
2023-10-29T13:05:38.877Z,98950.91
2023-10-29T13:08:06.068Z,98965.69
2023-10-29T13:10:37.000Z,98965.13
2023-10-29T13:13:03.558Z,98968.28
2023-10-29T13:15:30.726Z,98968.94
2023-10-29T13:17:57.258Z,98978.00
2023-10-29T13:20:27.743Z,98982.63
2023-10-29T13:22:54.454Z,98983.53
2023-10-29T13:25:21.027Z,98984.28
2023-10-29T13:27:47.389Z,98977.91
2023-10-29T13:30:14.267Z,98964.53
2023-10-29T13:32:40.897Z,98969.13
2023-10-29T13:35:10.824Z,98979.69
2023-10-29T13:37:38.560Z,98964.47
2023-10-29T13:40:07.401Z,98969.41
2023-10-29T13:42:33.786Z,98978.50
2023-10-29T13:45:00.348Z,98978.22
2023-10-29T13:47:27.063Z,98980.66
2023-10-29T13:49:53.561Z,98978.50
2023-10-29T13:52:20.048Z,98978.69
2023-10-29T13:54:46.523Z,98970.34
2023-10-29T13:57:13.442Z,98954.44
2023-10-29T13:59:39.842Z,98959.59
2023-10-29T14:02:06.893Z,98968.75
2023-10-29T14:04:34.871Z,98976.53
2023-10-29T14:07:02.163Z,98980.47
2023-10-29T14:09:28.889Z,98984.59
2023-10-29T14:11:55.307Z,98992.38
2023-10-29T14:14:23.126Z,98985.78
2023-10-29T14:16:49.802Z,98994.97
2023-10-29T14:19:18.175Z,98994.03
2023-10-29T14:21:51.365Z,98994.97
2023-10-29T14:24:17.973Z,98986.59
2023-10-29T14:26:44.375Z,98978.94
2023-10-29T14:29:17.003Z,98972.50
2023-10-29T14:31:43.736Z,98978.94
2023-10-29T14:34:10.095Z,98970.34
2023-10-29T14:36:37.518Z,98973.22
2023-10-29T14:39:04.189Z,98980.16
2023-10-29T14:41:30.617Z,98985.22
2023-10-29T14:43:58.822Z,98985.47
2023-10-29T14:46:25.393Z,98977.38
2023-10-29T14:48:51.972Z,98983.38
2023-10-29T14:51:18.534Z,98975.22
2023-10-29T14:53:45.010Z,98983.44
2023-10-29T14:56:14.231Z,98980.47
2023-10-29T14:58:43.225Z,98985.88
2023-10-29T15:01:10.170Z,98983.63
2023-10-29T15:03:36.918Z,98987.38
2023-10-29T15:06:09.586Z,99001.47
2023-10-29T15:08:36.313Z,98996.34
2023-10-29T15:11:03.320Z,98997.06
2023-10-29T15:13:29.870Z,98989.28
2023-10-29T15:15:56.551Z,98983.22
2023-10-29T15:18:23.184Z,98994.75
2023-10-29T15:21:00.398Z,99000.88
2023-10-29T15:23:28.434Z,98992.31
2023-10-29T15:25:55.083Z,98998.31
2023-10-29T15:28:21.740Z,98984.22
2023-10-29T15:30:48.188Z,98979.94
2023-10-29T15:33:17.272Z,98962.91
2023-10-29T15:35:43.897Z,98955.91
2023-10-29T15:38:11.058Z,98950.97
2023-10-29T15:40:38.573Z,98942.53
2023-10-29T15:43:04.937Z,98937.28
2023-10-29T15:45:31.393Z,98929.56
2023-10-29T15:47:58.020Z,98925.00
2023-10-29T15:50:24.393Z,98914.31
2023-10-29T15:52:51.555Z,98918.53
2023-10-29T15:55:18.555Z,98902.53
2023-10-29T15:57:45.284Z,98897.72
2023-10-29T16:00:13.681Z,98891.03
2023-10-29T16:02:40.228Z,98889.59
2023-10-29T16:05:08.144Z,98889.91
2023-10-29T16:07:35.326Z,98891.09
2023-10-29T16:10:01.786Z,98881.47
2023-10-29T16:12:28.192Z,98876.75
2023-10-29T16:14:54.984Z,98874.78
2023-10-29T16:17:21.388Z,98852.81
2023-10-29T16:19:48.001Z,98842.69
2023-10-29T16:22:16.330Z,98854.63
2023-10-29T16:24:42.719Z,98849.75
2023-10-29T16:27:09.476Z,98835.41
2023-10-29T16:29:36.111Z,98811.34
2023-10-29T16:32:06.100Z,98815.69
2023-10-29T16:34:32.892Z,98819.25
2023-10-29T16:37:00.727Z,98827.31
2023-10-29T16:39:28.272Z,98831.78
2023-10-29T16:42:01.910Z,98822.28
2023-10-29T16:44:31.570Z,98811.97
2023-10-29T16:46:58.335Z,98823.09
2023-10-29T16:49:25.261Z,98832.00
2023-10-29T16:51:52.938Z,98829.38
2023-10-29T16:54:20.488Z,98823.44
2023-10-29T16:56:49.703Z,98809.06
2023-10-29T16:59:16.167Z,98795.31
2023-10-29T17:01:43.670Z,98791.09
2023-10-29T17:04:10.086Z,98770.22
2023-10-29T17:06:36.549Z,98757.88
2023-10-29T17:09:03.399Z,98764.88
2023-10-29T17:11:31.339Z,98752.75
2023-10-29T17:13:57.834Z,98746.75
2023-10-29T17:16:24.358Z,98752.13
2023-10-29T17:18:51.272Z,98742.41
2023-10-29T17:21:20.069Z,98735.41
2023-10-29T17:23:48.468Z,98729.09
2023-10-29T17:26:19.731Z,98737.19
2023-10-29T17:28:48.450Z,98741.13
2023-10-29T17:31:19.588Z,98735.59
2023-10-29T17:33:47.544Z,98737.53
2023-10-29T17:36:18.304Z,98724.53
2023-10-29T17:38:47.632Z,98744.34
2023-10-29T17:41:19.226Z,98746.78
2023-10-29T17:43:46.892Z,98748.13
2023-10-29T17:46:14.649Z,98749.91
2023-10-29T17:48:41.447Z,98751.84
2023-10-29T17:51:08.731Z,98742.75
2023-10-29T17:53:37.488Z,98734.25
2023-10-29T17:56:04.664Z,98742.66
2023-10-29T17:58:32.310Z,98761.44
2023-10-29T18:00:59.755Z,98790.16
2023-10-29T18:03:28.285Z,98763.97
2023-10-29T18:05:55.144Z,98737.59
2023-10-29T18:08:21.618Z,98772.28
2023-10-29T18:10:48.282Z,98747.78
2023-10-29T18:13:14.753Z,98717.44
2023-10-29T18:15:41.297Z,98693.94
2023-10-29T18:18:07.920Z,98667.03
2023-10-29T18:20:35.096Z,98626.84
2023-10-29T18:23:03.225Z,98627.09
2023-10-29T18:25:31.341Z,98629.06
2023-10-29T18:27:57.702Z,98642.22
2023-10-29T18:30:24.903Z,98651.88
2023-10-29T18:32:53.869Z,98633.03
2023-10-29T18:35:20.427Z,98618.91
2023-10-29T18:37:50.798Z,98613.97
2023-10-29T18:40:20.429Z,98612.25
2023-10-29T18:42:47.140Z,98598.72
2023-10-29T18:45:14.208Z,98585.09
2023-10-29T18:47:40.843Z,98558.25
2023-10-29T18:50:07.902Z,98543.69
2023-10-29T18:52:36.142Z,98520.09
2023-10-29T18:55:03.539Z,98514.94
2023-10-29T18:57:30.125Z,98523.81
2023-10-29T18:59:56.768Z,98525.81
2023-10-29T19:02:23.233Z,98530.09
2023-10-29T19:04:50.431Z,98519.34
2023-10-29T19:07:16.837Z,98511.88
2023-10-29T19:09:43.231Z,98500.50
2023-10-29T19:12:09.908Z,98495.22
2023-10-29T19:14:37.198Z,98505.56
2023-10-29T19:17:09.266Z,98503.72
2023-10-29T19:19:39.366Z,98499.44
2023-10-29T19:22:06.690Z,98497.72
2023-10-29T19:24:34.033Z,98489.75
2023-10-29T19:27:02.211Z,98491.38
2023-10-29T19:29:28.585Z,98499.34
2023-10-29T19:31:54.986Z,98501.13
2023-10-29T19:34:21.559Z,98494.16
2023-10-29T19:36:48.125Z,98495.81
2023-10-29T19:39:14.876Z,98495.75
2023-10-29T19:41:41.435Z,98506.94
2023-10-29T19:44:07.784Z,98519.38
2023-10-29T19:46:35.277Z,98519.69
2023-10-29T19:49:05.344Z,98526.19
2023-10-29T19:51:32.137Z,98527.31
2023-10-29T19:54:00.556Z,98528.25
2023-10-29T19:56:27.854Z,98539.50
2023-10-29T19:58:54.570Z,98551.16
2023-10-29T20:01:22.905Z,98549.44
2023-10-29T20:03:49.740Z,98553.25
2023-10-29T20:06:16.592Z,98544.69
2023-10-29T20:08:46.349Z,98531.91
2023-10-29T20:11:14.865Z,98515.44
2023-10-29T20:13:47.143Z,98506.69
2023-10-29T20:16:14.726Z,98507.88
2023-10-29T20:18:41.862Z,98499.28
2023-10-29T20:21:16.935Z,98492.66
2023-10-29T20:23:47.765Z,98484.69
2023-10-29T20:26:15.879Z,98475.34
2023-10-29T20:28:42.877Z,98472.16
2023-10-29T20:31:09.605Z,98464.50
2023-10-29T20:33:36.636Z,98459.16
2023-10-29T20:36:04.530Z,98468.69
2023-10-29T20:38:31.276Z,98471.13
2023-10-29T20:40:57.700Z,98487.09
2023-10-29T20:43:25.294Z,98488.50
2023-10-29T20:45:54.207Z,98484.81
2023-10-29T20:48:22.540Z,98493.38
2023-10-29T20:50:53.171Z,98478.59
2023-10-29T20:53:20.132Z,98491.16
2023-10-29T20:55:47.251Z,98491.56
2023-10-29T20:58:14.754Z,98499.44
2023-10-29T21:00:42.178Z,98503.28
2023-10-29T21:03:08.857Z,98510.25
2023-10-29T21:05:35.343Z,98509.22
2023-10-29T21:08:01.854Z,98503.03
2023-10-29T21:10:29.906Z,98502.38
2023-10-29T21:12:56.357Z,98510.91
2023-10-29T21:15:24.863Z,98520.59
2023-10-29T21:17:51.560Z,98526.69
2023-10-29T21:20:18.089Z,98535.34
2023-10-29T21:22:46.257Z,98545.06
2023-10-29T21:25:12.823Z,98555.56
2023-10-29T21:27:40.752Z,98560.59
2023-10-29T21:30:08.387Z,98542.47
2023-10-29T21:32:34.874Z,98522.47
2023-10-29T21:35:01.626Z,98511.13
2023-10-29T21:37:28.041Z,98513.41
2023-10-29T21:39:54.577Z,98498.63
2023-10-29T21:42:20.984Z,98496.94
2023-10-29T21:44:47.769Z,98503.81
2023-10-29T21:47:14.760Z,98499.63
2023-10-29T21:49:43.718Z,98504.25
2023-10-29T21:52:10.052Z,98498.88
2023-10-29T21:54:36.541Z,98502.94
2023-10-29T21:57:04.295Z,98486.03
2023-10-29T21:59:31.326Z,98483.50
2023-10-29T22:01:58.082Z,98485.03
2023-10-29T22:04:24.817Z,98479.47
2023-10-29T22:06:51.397Z,98491.06
2023-10-29T22:09:17.928Z,98500.53
2023-10-29T22:11:46.127Z,98485.09
2023-10-29T22:14:12.867Z,98479.88
2023-10-29T22:16:42.258Z,98486.03
2023-10-29T22:19:08.700Z,98492.72
2023-10-29T22:21:36.848Z,98498.28
2023-10-29T22:24:03.670Z,98500.72
2023-10-29T22:26:30.448Z,98493.91
2023-10-29T22:28:56.879Z,98511.34
2023-10-29T22:31:23.641Z,98502.88
2023-10-29T22:33:50.229Z,98510.84
2023-10-29T22:36:16.585Z,98508.41
2023-10-29T22:38:43.107Z,98516.03
2023-10-29T22:41:13.263Z,98501.25
2023-10-29T22:43:39.888Z,98507.34
2023-10-29T22:46:06.614Z,98504.72
2023-10-29T22:48:33.728Z,98509.16
2023-10-29T22:51:03.886Z,98517.38
2023-10-29T22:53:30.632Z,98506.78
2023-10-29T22:56:01.153Z,98497.97
2023-10-29T22:58:29.437Z,98501.59
2023-10-29T23:00:56.261Z,98503.28
2023-10-29T23:03:22.807Z,98503.13
2023-10-29T23:05:49.535Z,98513.59
2023-10-29T23:08:17.021Z,98508.41
2023-10-29T23:10:43.692Z,98508.50
2023-10-29T23:13:10.248Z,98516.97
2023-10-29T23:15:36.882Z,98526.28
2023-10-29T23:18:03.653Z,98527.28
2023-10-29T23:20:30.179Z,98534.19
2023-10-29T23:22:56.529Z,98545.19
2023-10-29T23:25:23.159Z,98556.31
2023-10-29T23:27:49.526Z,98559.09
2023-10-29T23:30:16.181Z,98573.78
2023-10-29T23:32:42.672Z,98590.16
2023-10-29T23:35:09.244Z,98598.72
2023-10-29T23:37:35.620Z,98606.53
2023-10-29T23:40:02.367Z,98623.03
2023-10-29T23:42:28.758Z,98647.31
2023-10-29T23:44:55.708Z,98666.28
2023-10-29T23:47:23.345Z,98682.81
2023-10-29T23:49:50.047Z,98695.69
2023-10-29T23:52:16.560Z,98703.34
2023-10-29T23:54:45.622Z,98712.09
2023-10-29T23:57:12.869Z,98726.63
2023-10-29T23:59:39.646Z,98745.78
